Time;durP1;ratioP1;P1;durP2;ratioP2;P2;SDS_P1;SDS_P2;PMS_P1;PMS_P2;Temp;Humidity;BMP_temperature;BMP_pressure;BME280_temperature;BME280_humidity;BME280_pressure;Samples;Min_cycle;Max_cycle;Signal;HPM_P1;HPM_P2
2022/03/30 00:00:23;;;;;;;;;;;;;;;20.81;24.59;97987.72;4453465;32;34614;-81
2022/03/30 00:02:50;;;;;;;;;;;;;;;20.83;24.41;97987.63;4453265;32;34172;-83
2022/03/30 00:05:18;;;;;;;;;;;;;;;20.94;24.64;97998.50;4466928;32;34726;-81
2022/03/30 00:07:50;;;;;;;;;;;;;;;20.95;24.37;97988.81;4467573;32;33573;-82
2022/03/30 00:10:17;;;;;;;;;;;;;;;21.15;24.27;97986.09;4467882;32;34311;-81
2022/03/30 00:12:45;;;;;;;;;;;;;;;21.10;24.09;97983.69;4460527;32;34424;-81
2022/03/30 00:15:12;;;;;;;;;;;;;;;21.14;24.57;97981.75;4455868;32;35013;-82
2022/03/30 00:17:39;;;;;;;;;;;;;;;21.15;24.13;97986.09;4438545;32;33267;-81
2022/03/30 00:20:07;;;;;;;;;;;;;;;21.19;24.12;97985.00;4452272;32;34646;-82
2022/03/30 00:22:34;;;;;;;;;;;;;;;21.07;24.06;97989.09;4465907;32;33871;-81
2022/03/30 00:25:01;;;;;;;;;;;;;;;21.04;24.10;97983.97;4464929;32;33771;-84
2022/03/30 00:27:29;;;;;;;;;;;;;;;21.07;24.22;97978.56;4439269;32;33862;-81
2022/03/30 00:29:56;;;;;;;;;;;;;;;20.65;24.59;97984.09;4460682;32;33732;-81
2022/03/30 00:32:25;;;;;;;;;;;;;;;20.57;24.65;97975.69;4455630;32;34280;-82
2022/03/30 00:34:52;;;;;;;;;;;;;;;20.71;24.46;97975.91;4461894;32;34134;-82
2022/03/30 00:37:19;;;;;;;;;;;;;;;20.59;24.43;97972.06;4462373;32;33193;-82
2022/03/30 00:39:47;;;;;;;;;;;;;;;20.58;24.79;97973.00;4467603;32;34135;-81
2022/03/30 00:42:18;;;;;;;;;;;;;;;20.44;24.75;97967.47;4457068;32;34118;-82
2022/03/30 00:44:48;;;;;;;;;;;;;;;20.11;25.05;97975.13;4461011;32;34503;-81
2022/03/30 00:47:17;;;;;;;;;;;;;;;20.07;25.23;97977.03;4455530;32;33542;-81
2022/03/30 00:49:45;;;;;;;;;;;;;;;19.53;25.87;97961.88;4438370;32;34430;-81
2022/03/30 00:52:12;;;;;;;;;;;;;;;20.10;25.18;97962.91;4462103;32;34399;-81
2022/03/30 00:54:40;;;;;;;;;;;;;;;20.37;25.02;97956.38;4459515;32;33698;-82
2022/03/30 00:57:08;;;;;;;;;;;;;;;20.61;24.84;97951.78;4456963;32;33234;-82
2022/03/30 00:59:35;;;;;;;;;;;;;;;20.53;24.56;97939.91;4453605;32;33614;-82
2022/03/30 01:02:03;;;;;;;;;;;;;;;20.08;25.35;97951.59;4452743;32;35052;-83
2022/03/30 01:04:34;;;;;;;;;;;;;;;20.16;25.23;97952.09;4463590;32;34861;-82
2022/03/30 01:07:02;;;;;;;;;;;;;;;20.06;25.14;97953.44;4443096;32;33894;-82
2022/03/30 01:09:29;;;;;;;;;;;;;;;19.45;25.60;97949.06;4452527;32;33894;-81
2022/03/30 01:11:56;;;;;;;;;;;;;;;19.34;26.12;97944.25;4455011;32;34247;-81
2022/03/30 01:14:24;;;;;;;;;;;;;;;19.37;26.07;97949.38;4441462;32;34618;-81
2022/03/30 01:16:51;;;;;;;;;;;;;;;19.46;25.96;97945.50;4442065;32;33326;-81
2022/03/30 01:19:20;;;;;;;;;;;;;;;19.62;25.94;97945.72;4452297;32;34002;-83
2022/03/30 01:21:48;;;;;;;;;;;;;;;19.99;25.89;97941.47;4447382;32;34630;-81
2022/03/30 01:24:15;;;;;;;;;;;;;;;20.03;25.61;97946.53;4464930;32;33866;-82
2022/03/30 01:26:42;;;;;;;;;;;;;;;19.84;25.92;97938.59;4466287;32;33379;-81
2022/03/30 01:34:43;;;;;;;;;;;;;;;19.52;26.25;97932.09;4451925;32;34061;-81
2022/03/30 01:37:11;;;;;;;;;;;;;;;19.27;26.61;97928.81;4445015;32;33581;-80
2022/03/30 01:39:38;;;;;;;;;;;;;;;19.31;26.59;97922.50;4453457;32;33963;-81
2022/03/30 01:42:05;;;;;;;;;;;;;;;19.57;26.19;97924.88;4461551;32;34474;-82
2022/03/30 01:44:33;;;;;;;;;;;;;;;19.39;26.55;97921.25;4455752;32;34022;-81
2022/03/30 01:47:00;;;;;;;;;;;;;;;19.43;26.79;97920.22;4444175;32;33353;-80
2022/03/30 01:49:28;;;;;;;;;;;;;;;19.27;26.79;97916.50;4466558;32;35160;-81
2022/03/30 01:51:56;;;;;;;;;;;;;;;19.55;26.58;97918.84;4452846;32;34176;-82
2022/03/30 01:54:24;;;;;;;;;;;;;;;19.70;26.32;97917.34;4454734;32;34845;-82
2022/03/30 01:56:52;;;;;;;;;;;;;;;19.68;26.32;97916.53;4460500;32;33211;-79
2022/03/30 01:59:19;;;;;;;;;;;;;;;19.66;26.25;97911.38;4453518;32;32878;-83
2022/03/30 02:01:47;;;;;;;;;;;;;;;19.67;26.41;97912.22;4467342;32;34460;-81
2022/03/30 02:04:14;;;;;;;;;;;;;;;19.69;26.22;97905.94;4463299;32;33908;-82
2022/03/30 02:06:41;;;;;;;;;;;;;;;19.19;26.87;97908.09;4459489;32;34027;-81
2022/03/30 02:09:11;;;;;;;;;;;;;;;19.47;26.60;97905.13;4452946;32;35047;-82
2022/03/30 02:11:39;;;;;;;;;;;;;;;19.33;26.72;97903.13;4453936;32;34198;-81
2022/03/30 02:14:06;;;;;;;;;;;;;;;18.80;27.15;97895.72;4465824;32;34226;-82
2022/03/30 02:16:33;;;;;;;;;;;;;;;19.20;26.91;97896.66;4458181;32;34146;-82
2022/03/30 02:19:01;;;;;;;;;;;;;;;19.41;26.41;97901.03;4454205;32;34902;-81
2022/03/30 02:21:28;;;;;;;;;;;;;;;19.22;26.71;97899.25;4451964;32;35049;-83
2022/03/30 02:23:55;;;;;;;;;;;;;;;19.13;26.93;97895.22;4455550;32;35158;-81
2022/03/30 02:26:23;;;;;;;;;;;;;;;19.28;26.76;97905.09;4464767;32;33703;-82
2022/03/30 02:28:51;;;;;;;;;;;;;;;19.29;26.85;97903.31;4456958;32;34264;-81
2022/03/30 02:31:18;;;;;;;;;;;;;;;19.26;26.90;97901.69;4467113;32;33919;-81
2022/03/30 02:33:46;;;;;;;;;;;;;;;19.16;27.12;97908.22;4467188;32;34826;-80
2022/03/30 02:36:14;;;;;;;;;;;;;;;19.03;27.15;97909.69;4446119;32;33556;-81
2022/03/30 02:38:41;;;;;;;;;;;;;;;19.29;26.90;97906.81;4456377;32;33737;-81
2022/03/30 02:41:10;;;;;;;;;;;;;;;19.10;27.14;97903.25;4451732;32;35247;-81
2022/03/30 02:43:37;;;;;;;;;;;;;;;19.19;27.16;97911.59;4442549;32;35135;-81
2022/03/30 02:46:05;;;;;;;;;;;;;;;19.05;27.57;97907.81;4461961;32;32994;-81
2022/03/30 02:48:37;;;;;;;;;;;;;;;19.31;27.28;97906.72;4466752;32;33880;-81
2022/03/30 02:51:05;;;;;;;;;;;;;;;19.10;27.49;97901.47;4467105;32;34213;-81
2022/03/30 02:53:33;;;;;;;;;;;;;;;19.38;27.03;97901.16;4444715;32;35029;-80
2022/03/30 02:56:00;;;;;;;;;;;;;;;19.14;27.26;97907.47;4461709;32;33479;-81
2022/03/30 02:58:28;;;;;;;;;;;;;;;19.23;27.34;97901.81;4466945;32;34219;-80
2022/03/30 03:00:55;;;;;;;;;;;;;;;18.97;27.57;97908.12;4459476;32;35297;-80
2022/03/30 03:03:22;;;;;;;;;;;;;;;19.14;27.55;97902.19;4452600;32;34138;-81
2022/03/30 03:05:50;;;;;;;;;;;;;;;19.18;27.31;97903.78;4462986;32;33478;-81
2022/03/30 03:08:17;;;;;;;;;;;;;;;19.04;27.65;97903.50;4466239;32;33907;-81
2022/03/30 03:10:45;;;;;;;;;;;;;;;19.01;27.75;97904.47;4466589;32;33889;-80
2022/03/30 03:13:13;;;;;;;;;;;;;;;18.91;27.75;97909.25;4442944;32;35346;-81
2022/03/30 03:15:41;;;;;;;;;;;;;;;19.08;27.59;97907.69;4457412;32;34362;-81
2022/03/30 03:18:08;;;;;;;;;;;;;;;18.72;28.32;97910.94;4466694;32;34673;-81
2022/03/30 03:20:35;;;;;;;;;;;;;;;18.64;28.39;97908.56;4466699;32;35284;-81
2022/03/30 03:23:03;;;;;;;;;;;;;;;18.63;28.46;97908.62;4450919;32;33971;-81
2022/03/30 03:25:35;;;;;;;;;;;;;;;18.51;28.72;97906.47;4440835;32;34172;-81
2022/03/30 03:28:03;;;;;;;;;;;;;;;18.71;28.62;97909.19;4452835;32;34922;-81
2022/03/30 03:30:30;;;;;;;;;;;;;;;18.56;28.98;97904.53;4468041;32;34900;-84
2022/03/30 03:32:59;;;;;;;;;;;;;;;18.61;28.94;97902.59;4460144;32;34731;-81
2022/03/30 03:35:26;;;;;;;;;;;;;;;18.56;29.21;97887.03;4464356;32;34003;-80
2022/03/30 03:37:55;;;;;;;;;;;;;;;18.84;28.89;97907.78;4454896;32;34440;-81
2022/03/30 03:40:22;;;;;;;;;;;;;;;18.51;29.33;97901.22;4453243;32;34111;-81
2022/03/30 03:42:49;;;;;;;;;;;;;;;18.50;29.68;97896.91;4459020;32;34158;-81
2022/03/30 03:45:17;;;;;;;;;;;;;;;18.61;29.41;97897.34;4461678;32;33235;-80
2022/03/30 03:47:44;;;;;;;;;;;;;;;18.45;29.60;97894.47;4453822;32;32681;-81
2022/03/30 03:50:11;;;;;;;;;;;;;;;18.41;29.87;97891.13;4452873;32;35097;-81
2022/03/30 03:52:38;;;;;;;;;;;;;;;18.52;29.53;97893.28;4457619;32;34963;-81
2022/03/30 03:55:06;;;;;;;;;;;;;;;18.48;29.62;97891.69;4466879;32;33239;-81
2022/03/30 03:57:34;;;;;;;;;;;;;;;18.39;29.68;97889.47;4460738;32;33945;-81
2022/03/30 04:00:02;;;;;;;;;;;;;;;18.59;29.62;97889.50;4468634;32;34423;-81
2022/03/30 04:02:38;;;;;;;;;;;;;;;18.47;29.71;97887.38;4445318;32;34098;-80
2022/03/30 04:05:08;;;;;;;;;;;;;;;18.53;29.81;97894.16;4462083;32;34631;-81
2022/03/30 04:07:36;;;;;;;;;;;;;;;18.45;30.08;97895.31;4466906;32;34241;-82
2022/03/30 04:10:03;;;;;;;;;;;;;;;18.43;29.81;97886.62;4468303;32;34135;-80
2022/03/30 04:12:31;;;;;;;;;;;;;;;18.24;30.34;97877.78;4454012;32;33672;-82
2022/03/30 04:14:58;;;;;;;;;;;;;;;18.37;30.12;97881.66;4465730;32;32841;-80
2022/03/30 04:17:25;;;;;;;;;;;;;;;18.39;29.96;97884.22;4444967;32;33838;-83
2022/03/30 04:19:53;;;;;;;;;;;;;;;18.24;30.20;97885.66;4461115;32;35249;-80
2022/03/30 04:22:20;;;;;;;;;;;;;;;18.26;30.17;97880.34;4468484;32;34768;-80
2022/03/30 04:24:47;;;;;;;;;;;;;;;18.13;30.35;97885.22;4467618;32;32830;-81
2022/03/30 04:27:15;;;;;;;;;;;;;;;18.22;30.07;97882.22;4467947;32;34129;-81
2022/03/30 04:29:42;;;;;;;;;;;;;;;18.33;29.65;97880.03;4457801;32;34390;-80
2022/03/30 04:32:09;;;;;;;;;;;;;;;18.25;29.92;97892.59;4462397;32;34313;-82
2022/03/30 04:34:38;;;;;;;;;;;;;;;18.29;29.55;97885.47;4460718;32;33705;-81
2022/03/30 04:37:05;;;;;;;;;;;;;;;18.20;29.69;97892.78;4461139;32;35074;-81
2022/03/30 04:39:33;;;;;;;;;;;;;;;17.91;30.03;97891.25;4455224;32;35146;-81
2022/03/30 04:42:00;;;;;;;;;;;;;;;18.17;29.46;97897.28;4461261;32;34348;-82
2022/03/30 04:44:27;;;;;;;;;;;;;;;18.40;29.24;97894.62;4455547;32;33504;-79
2022/03/30 04:46:54;;;;;;;;;;;;;;;18.05;29.67;97892.53;4462909;32;34124;-81
2022/03/30 04:49:22;;;;;;;;;;;;;;;18.30;29.45;97893.31;4463887;32;34138;-82
2022/03/30 04:51:49;;;;;;;;;;;;;;;18.21;29.77;97894.50;4458662;32;33875;-81
2022/03/30 04:54:17;;;;;;;;;;;;;;;18.32;29.52;97896.69;4460307;32;33552;-79
2022/03/30 04:56:45;;;;;;;;;;;;;;;18.26;29.47;97896.97;4467080;32;33939;-80
2022/03/30 04:59:12;;;;;;;;;;;;;;;18.36;29.14;97893.03;4454296;32;34500;-82
2022/03/30 05:01:40;;;;;;;;;;;;;;;18.28;29.68;97900.34;4461659;32;34426;-80
2022/03/30 05:04:08;;;;;;;;;;;;;;;18.31;29.82;97905.50;4461974;32;32872;-81
2022/03/30 05:06:35;;;;;;;;;;;;;;;18.33;29.78;97918.53;4467851;32;34335;-84
2022/03/30 05:09:02;;;;;;;;;;;;;;;18.49;29.68;97917.06;4453256;32;34534;-82
2022/03/30 05:11:31;;;;;;;;;;;;;;;18.41;29.86;97913.84;4459190;32;33799;-80
2022/03/30 05:13:58;;;;;;;;;;;;;;;18.26;30.24;97922.31;4452648;32;33457;-83
2022/03/30 05:16:25;;;;;;;;;;;;;;;17.99;30.74;97922.44;4459247;32;35003;-87
2022/03/30 05:18:53;;;;;;;;;;;;;;;17.93;31.21;97928.78;4452348;32;34619;-87
2022/03/30 05:21:20;;;;;;;;;;;;;;;18.46;30.48;97923.28;4452184;32;34938;-86
2022/03/30 05:23:48;;;;;;;;;;;;;;;18.21;30.64;97925.12;4452419;32;33323;-86
2022/03/30 05:26:15;;;;;;;;;;;;;;;18.27;30.89;97919.66;4452175;32;34179;-87
2022/03/30 05:28:43;;;;;;;;;;;;;;;18.42;30.46;97931.31;4452452;32;34403;-87
2022/03/30 05:31:10;;;;;;;;;;;;;;;18.03;30.82;97931.03;4452195;32;35287;-87
2022/03/30 05:33:37;;;;;;;;;;;;;;;18.19;30.64;97932.19;4452481;32;32918;-85
2022/03/30 05:36:04;;;;;;;;;;;;;;;18.34;30.48;97933.41;4452372;32;34339;-86
2022/03/30 05:38:32;;;;;;;;;;;;;;;18.77;30.01;97934.38;4452349;32;35261;-86
2022/03/30 05:41:02;;;;;;;;;;;;;;;19.16;29.79;97939.75;4452053;32;34431;-88
2022/03/30 05:43:29;;;;;;;;;;;;;;;19.02;30.01;97934.25;4452225;32;34226;-88
2022/03/30 05:45:56;;;;;;;;;;;;;;;19.14;29.94;97929.31;4452130;32;34561;-81
2022/03/30 05:48:24;;;;;;;;;;;;;;;18.88;30.27;97925.12;4452234;32;34040;-87
2022/03/30 05:50:52;;;;;;;;;;;;;;;19.29;29.85;97930.47;4451362;32;33474;-85
2022/03/30 05:53:19;;;;;;;;;;;;;;;18.86;30.25;97928.72;4452143;32;33049;-87
2022/03/30 05:55:46;;;;;;;;;;;;;;;19.25;29.35;97923.62;4452413;32;34952;-87
2022/03/30 05:58:15;;;;;;;;;;;;;;;19.34;28.91;97922.38;4452370;32;34184;-89
2022/03/30 06:00:42;;;;;;;;;;;;;;;19.66;28.08;97923.62;4452128;32;33913;-88
2022/03/30 06:03:10;;;;;;;;;;;;;;;19.55;28.17;97925.88;4439147;32;32949;-83
2022/03/30 06:05:37;;;;;;;;;;;;;;;19.29;28.59;97926.97;4466231;32;33788;-87
2022/03/30 06:08:05;;;;;;;;;;;;;;;18.86;29.09;97929.56;4467374;32;34226;-89
2022/03/30 06:10:33;;;;;;;;;;;;;;;19.03;28.90;97933.31;4467408;32;34833;-80
2022/03/30 06:13:02;;;;;;;;;;;;;;;18.85;29.72;97927.03;4453757;32;33468;-82
2022/03/30 06:15:29;;;;;;;;;;;;;;;19.66;28.30;97928.87;4464716;32;35098;-87
2022/03/30 06:17:56;;;;;;;;;;;;;;;19.67;28.00;97922.72;4461517;32;35361;-81
2022/03/30 06:20:24;;;;;;;;;;;;;;;19.73;27.80;97921.59;4453269;32;34037;-83
2022/03/30 06:22:52;;;;;;;;;;;;;;;19.80;27.90;97926.50;4450843;32;33089;-87
2022/03/30 06:25:20;;;;;;;;;;;;;;;20.19;27.66;97925.63;4453043;32;35077;-81
2022/03/30 06:27:48;;;;;;;;;;;;;;;19.41;28.33;97932.56;4451996;32;34304;-81
2022/03/30 06:30:15;;;;;;;;;;;;;;;19.15;28.67;97931.03;4458041;32;34552;-82
2022/03/30 06:32:43;;;;;;;;;;;;;;;19.68;28.25;97927.06;4459947;32;33642;-86
2022/03/30 06:35:10;;;;;;;;;;;;;;;19.50;28.74;97936.56;4466507;32;34235;-81
2022/03/30 06:37:37;;;;;;;;;;;;;;;19.75;28.11;97938.19;4467210;32;34314;-81
2022/03/30 06:40:05;;;;;;;;;;;;;;;20.02;28.02;97938.72;4463721;32;35014;-81
2022/03/30 06:42:32;;;;;;;;;;;;;;;20.21;27.87;97939.59;4467561;32;33320;-81
2022/03/30 06:45:00;;;;;;;;;;;;;;;20.38;27.06;97936.16;4466887;32;34210;-83
2022/03/30 06:47:30;;;;;;;;;;;;;;;18.65;29.78;97947.03;4467292;32;35366;-81
2022/03/30 06:49:57;;;;;;;;;;;;;;;17.72;31.94;97947.84;4467188;32;34769;-80
2022/03/30 06:52:26;;;;;;;;;;;;;;;19.16;29.16;97942.37;4466979;32;33405;-82
2022/03/30 06:54:53;;;;;;;;;;;;;;;19.04;29.70;97942.91;4467180;32;34783;-81
2022/03/30 06:57:20;;;;;;;;;;;;;;;18.78;30.05;97939.53;4467017;32;35197;-81
2022/03/30 06:59:48;;;;;;;;;;;;;;;18.72;30.06;97939.81;4466963;32;34224;-82
2022/03/30 07:02:15;;;;;;;;;;;;;;;18.96;29.31;97944.06;4467574;32;33144;-81
2022/03/30 07:04:42;;;;;;;;;;;;;;;19.33;28.79;97939.91;4461090;32;34005;-81
2022/03/30 07:12:42;;;;;;;;;;;;;;;19.67;28.05;97944.63;4456643;32;33175;-82
2022/03/30 07:15:16;;;;;;;;;;;;;;;20.52;26.47;97941.69;4443161;32;34737;-82
2022/03/30 07:17:48;;;;;;;;;;;;;;;19.03;28.56;97941.19;4442219;32;35317;-82
2022/03/30 07:20:16;;;;;;;;;;;;;;;18.28;30.04;97941.50;4456364;32;34578;-82
2022/03/30 07:22:43;;;;;;;;;;;;;;;18.95;28.76;97944.13;4456231;32;33143;-82
2022/03/30 07:25:11;;;;;;;;;;;;;;;18.92;28.72;97944.25;4456398;32;33599;-82
2022/03/30 07:27:42;;;;;;;;;;;;;;;19.53;28.08;97949.56;4442232;32;35114;-81
2022/03/30 07:30:09;;;;;;;;;;;;;;;19.60;28.21;97937.03;4442287;32;34175;-81
2022/03/30 07:32:39;;;;;;;;;;;;;;;19.71;27.09;97937.44;4442133;32;33157;-82
2022/03/30 07:35:07;;;;;;;;;;;;;;;19.55;27.51;97934.59;4455961;32;34262;-82
2022/03/30 07:37:34;;;;;;;;;;;;;;;20.39;26.07;97930.84;4456256;32;34442;-82
2022/03/30 07:40:04;;;;;;;;;;;;;;;19.37;27.44;97933.59;4456533;32;34374;-82
2022/03/30 07:42:32;;;;;;;;;;;;;;;19.78;27.38;97933.63;4456452;32;32838;-82
2022/03/30 07:44:59;;;;;;;;;;;;;;;20.62;25.98;97921.91;4442127;32;34045;-82
2022/03/30 07:47:26;;;;;;;;;;;;;;;20.89;25.48;97927.59;4456698;32;33844;-83
2022/03/30 07:49:54;;;;;;;;;;;;;;;20.02;26.54;97931.69;4455997;32;34626;-82
2022/03/30 07:52:21;;;;;;;;;;;;;;;20.41;26.16;97930.75;4456109;32;32263;-82
2022/03/30 07:54:49;;;;;;;;;;;;;;;20.34;26.42;97932.84;4456106;32;35137;-82
2022/03/30 07:57:18;;;;;;;;;;;;;;;20.03;27.42;97936.00;4442074;32;34850;-82
2022/03/30 07:59:45;;;;;;;;;;;;;;;20.08;26.48;97943.72;4455805;32;34002;-82
2022/03/30 08:02:15;;;;;;;;;;;;;;;20.52;26.06;97933.78;4455734;32;33571;-82
2022/03/30 08:04:43;;;;;;;;;;;;;;;20.69;25.96;97932.16;4456034;32;34108;-82
2022/03/30 08:07:10;;;;;;;;;;;;;;;21.13;25.37;97933.44;4455554;32;33900;-82
2022/03/30 08:09:37;;;;;;;;;;;;;;;21.75;24.92;97939.12;4455632;32;34326;-82
2022/03/30 08:12:05;;;;;;;;;;;;;;;21.80;24.63;97936.25;4455711;32;34331;-82
2022/03/30 08:14:32;;;;;;;;;;;;;;;22.01;24.27;97944.81;4453492;32;35112;-82
2022/03/30 08:16:59;;;;;;;;;;;;;;;21.94;24.94;97951.37;4438771;32;36053;-81
2022/03/30 08:19:27;;;;;;;;;;;;;;;21.41;26.05;97950.56;4452688;32;33791;-82
2022/03/30 08:24:41;;;;;;;;;;;;;;;22.08;25.23;97946.19;4452843;32;34317;-83
2022/03/30 08:27:08;;;;;;;;;;;;;;;22.28;24.93;97946.03;4438631;32;34537;-83
2022/03/30 08:29:38;;;;;;;;;;;;;;;21.34;26.34;97943.91;4452710;32;35112;-84
2022/03/30 08:32:06;;;;;;;;;;;;;;;21.21;26.32;97951.50;4452868;32;34462;-82
2022/03/30 08:34:33;;;;;;;;;;;;;;;21.85;25.80;97942.97;4438630;32;33508;-82
2022/03/30 08:37:00;;;;;;;;;;;;;;;21.55;26.89;97952.47;4452766;32;34284;-82
2022/03/30 08:39:27;;;;;;;;;;;;;;;21.60;26.57;97946.06;4453054;32;34313;-82
2022/03/30 08:41:55;;;;;;;;;;;;;;;21.80;26.23;97958.22;4452607;32;33326;-83
2022/03/30 08:44:22;;;;;;;;;;;;;;;21.21;27.59;97959.41;4452874;32;34115;-82
2022/03/30 08:46:49;;;;;;;;;;;;;;;21.41;27.92;97961.13;4452968;32;34117;-82
2022/03/30 08:49:17;;;;;;;;;;;;;;;21.28;27.93;97966.09;4452495;32;34764;-82
2022/03/30 08:51:47;;;;;;;;;;;;;;;20.22;29.20;97969.38;4452937;32;33128;-82
2022/03/30 08:54:15;;;;;;;;;;;;;;;20.92;28.23;97962.66;4452758;32;34867;-82
2022/03/30 08:56:42;;;;;;;;;;;;;;;21.68;27.73;97966.75;4438508;32;34261;-82
2022/03/30 08:59:10;;;;;;;;;;;;;;;21.86;26.89;97968.47;4452519;32;35118;-82
2022/03/30 09:01:41;;;;;;;;;;;;;;;21.96;27.40;97962.69;4438960;32;32750;-83
2022/03/30 09:04:11;;;;;;;;;;;;;;;21.93;27.12;97965.47;4458502;32;34963;-82
2022/03/30 09:06:40;;;;;;;;;;;;;;;22.17;27.35;97961.59;4468041;32;33817;-82
2022/03/30 09:09:07;;;;;;;;;;;;;;;20.91;28.94;97946.00;4453734;32;34737;-82
2022/03/30 09:11:40;;;;;;;;;;;;;;;21.06;29.16;97954.91;4453952;32;34119;-82
2022/03/30 09:14:09;;;;;;;;;;;;;;;21.43;28.49;97948.69;4468003;32;35002;-82
2022/03/30 09:16:40;;;;;;;;;;;;;;;21.70;27.69;97950.84;4467776;32;34216;-82
2022/03/30 09:19:09;;;;;;;;;;;;;;;22.14;26.83;97955.63;4468120;32;33967;-82
2022/03/30 09:21:40;;;;;;;;;;;;;;;21.29;28.16;97952.00;4454051;32;32966;-82
2022/03/30 09:24:08;;;;;;;;;;;;;;;21.23;28.13;97947.03;4467898;32;34033;-83
2022/03/30 09:26:36;;;;;;;;;;;;;;;21.09;29.44;97952.13;4467877;32;34409;-82
2022/03/30 09:29:04;;;;;;;;;;;;;;;21.87;27.89;97964.88;4468045;32;34331;-83
2022/03/30 09:31:32;;;;;;;;;;;;;;;21.00;29.11;97955.22;4467936;32;33361;-82
2022/03/30 09:34:02;;;;;;;;;;;;;;;22.00;28.28;97954.53;4468081;32;35084;-82
2022/03/30 09:36:30;;;;;;;;;;;;;;;21.81;28.03;97957.28;4467808;32;32886;-82
2022/03/30 09:38:58;;;;;;;;;;;;;;;21.72;28.26;97947.22;4453912;32;34318;-82
2022/03/30 09:41:25;;;;;;;;;;;;;;;22.03;27.86;97951.72;4468071;32;33551;-82
2022/03/30 09:44:03;;;;;;;;;;;;;;;22.00;28.01;97949.25;4467762;32;35188;-81
2022/03/30 09:46:30;;;;;;;;;;;;;;;22.34;27.51;97943.03;4453712;32;33347;-82
2022/03/30 09:48:57;;;;;;;;;;;;;;;22.65;26.84;97943.97;4467901;32;35229;-82
2022/03/30 09:51:25;;;;;;;;;;;;;;;21.55;28.39;97942.78;4467728;32;34406;-82
2022/03/30 09:53:52;;;;;;;;;;;;;;;21.86;28.22;97941.22;4467797;32;34018;-82
2022/03/30 09:56:23;;;;;;;;;;;;;;;21.73;28.42;97933.06;4467795;32;34569;-82
2022/03/30 09:58:58;;;;;;;;;;;;;;;21.77;27.65;97931.12;4467578;32;34541;-82
2022/03/30 10:01:29;;;;;;;;;;;;;;;21.28;28.71;97931.81;4453427;32;34130;-82
2022/03/30 10:03:59;;;;;;;;;;;;;;;21.83;28.11;97930.81;4454469;32;34172;-82
2022/03/30 10:06:28;;;;;;;;;;;;;;;21.47;28.58;97923.88;4467711;32;35375;-82
2022/03/30 10:09:02;;;;;;;;;;;;;;;21.78;28.48;97927.56;4467747;32;34400;-82
2022/03/30 10:11:29;;;;;;;;;;;;;;;21.71;28.29;97916.50;4453367;32;32889;-83
2022/03/30 10:13:59;;;;;;;;;;;;;;;21.95;28.56;97910.84;4453388;32;34957;-85
2022/03/30 10:16:43;;;;;;;;;;;;;;;21.17;28.62;97913.06;4455445;32;35314;-83
2022/03/30 10:19:10;;;;;;;;;;;;;;;21.83;28.62;97921.13;4467698;32;33835;-82
2022/03/30 10:21:40;;;;;;;;;;;;;;;22.59;27.05;97912.66;4467699;32;33584;-83
2022/03/30 10:24:08;;;;;;;;;;;;;;;21.66;28.74;97907.94;4467698;32;34046;-82
2022/03/30 10:26:43;;;;;;;;;;;;;;;21.02;29.70;97911.19;4467762;32;33749;-82
2022/03/30 10:29:11;;;;;;;;;;;;;;;21.77;28.67;97913.50;4453162;32;33713;-82
2022/03/30 10:31:39;;;;;;;;;;;;;;;21.08;29.63;97903.00;4453664;32;33537;-81
2022/03/30 10:34:22;;;;;;;;;;;;;;;21.29;29.78;97899.28;4453517;32;33740;-82
2022/03/30 10:37:00;;;;;;;;;;;;;;;21.17;29.48;97896.41;4467433;32;34984;-83
2022/03/30 10:39:27;;;;;;;;;;;;;;;21.68;28.89;97895.53;4453348;32;34458;-82
2022/03/30 10:42:15;;;;;;;;;;;;;;;21.73;28.36;97887.38;4455685;32;34109;-82
2022/03/30 10:44:46;;;;;;;;;;;;;;;21.30;28.34;97886.94;4467034;32;34777;-82
2022/03/30 10:47:14;;;;;;;;;;;;;;;21.66;28.17;97889.47;4467098;32;35243;-84
2022/03/30 10:49:47;;;;;;;;;;;;;;;21.16;28.56;97890.28;4467168;32;35051;-82
2022/03/30 10:52:24;;;;;;;;;;;;;;;21.74;27.60;97889.94;4467447;32;32840;-83
2022/03/30 10:54:55;;;;;;;;;;;;;;;21.02;29.17;97875.16;4453540;32;34798;-82
2022/03/30 10:57:41;;;;;;;;;;;;;;;21.57;28.12;97877.62;4467204;32;35309;-82
2022/03/30 11:00:15;;;;;;;;;;;;;;;22.08;27.79;97867.84;4466991;32;34125;-83
2022/03/30 11:02:42;;;;;;;;;;;;;;;21.21;29.45;97880.34;4467057;32;33252;-83
2022/03/30 11:05:16;;;;;;;;;;;;;;;21.48;29.15;97874.63;4466938;32;33623;-82
2022/03/30 11:07:43;;;;;;;;;;;;;;;22.00;28.39;97864.78;4453133;32;33956;-82
2022/03/30 11:10:17;;;;;;;;;;;;;;;21.75;29.18;97864.44;4452890;32;34111;-82
2022/03/30 11:12:57;;;;;;;;;;;;;;;22.22;28.53;97861.03;4440393;32;33243;-82
2022/03/30 11:15:24;;;;;;;;;;;;;;;22.04;28.76;97854.91;4466894;32;33828;-84
2022/03/30 11:17:51;;;;;;;;;;;;;;;22.20;27.94;97842.63;4466897;32;34309;-82
2022/03/30 11:20:19;;;;;;;;;;;;;;;21.82;28.61;97850.81;4467106;32;34349;-82
2022/03/30 11:22:47;;;;;;;;;;;;;;;22.08;28.15;97851.19;4466923;32;33187;-82
2022/03/30 11:25:23;;;;;;;;;;;;;;;22.02;28.63;97847.09;4452955;32;34294;-82
2022/03/30 11:27:56;;;;;;;;;;;;;;;21.91;28.37;97838.06;4453279;32;34011;-83
2022/03/30 11:30:25;;;;;;;;;;;;;;;22.29;28.02;97831.56;4466687;32;34029;-82
2022/03/30 11:32:52;;;;;;;;;;;;;;;21.90;28.46;97836.37;4452420;32;33839;-82
2022/03/30 11:35:20;;;;;;;;;;;;;;;22.52;27.42;97839.97;4466936;32;33814;-82
2022/03/30 11:37:49;;;;;;;;;;;;;;;22.35;27.07;97838.28;4466592;32;34914;-82
2022/03/30 11:40:18;;;;;;;;;;;;;;;21.69;28.26;97841.84;4466684;32;34955;-82
2022/03/30 11:42:49;;;;;;;;;;;;;;;21.98;28.02;97829.72;4466310;32;33651;-83
2022/03/30 11:45:19;;;;;;;;;;;;;;;22.20;27.33;97824.16;4452605;32;34242;-86
2022/03/30 11:47:46;;;;;;;;;;;;;;;20.60;29.41;97825.47;4466479;32;34131;-82
2022/03/30 11:50:16;;;;;;;;;;;;;;;21.41;28.79;97824.00;4467286;32;34181;-82
2022/03/30 11:52:44;;;;;;;;;;;;;;;22.28;27.20;97810.53;4468675;32;32851;-83
2022/03/30 11:55:11;;;;;;;;;;;;;;;22.07;27.97;97821.28;4454608;32;34878;-82
2022/03/30 11:57:40;;;;;;;;;;;;;;;22.14;27.58;97810.44;4468162;32;32953;-82
2022/03/30 12:00:10;;;;;;;;;;;;;;;21.93;27.91;97812.44;4469015;32;33700;-83
2022/03/30 12:02:38;;;;;;;;;;;;;;;22.61;26.78;97807.72;4468636;32;34297;-83
2022/03/30 12:05:06;;;;;;;;;;;;;;;22.78;26.29;97804.13;4468510;32;34942;-82
2022/03/30 12:07:35;;;;;;;;;;;;;;;21.37;28.60;97804.03;4468695;32;34155;-82
2022/03/30 12:10:02;;;;;;;;;;;;;;;22.00;27.63;97798.81;4468870;32;33212;-82
2022/03/30 12:12:35;;;;;;;;;;;;;;;21.79;27.40;97792.94;4468136;32;33951;-82
2022/03/30 12:15:02;;;;;;;;;;;;;;;22.02;27.38;97786.41;4468468;32;34989;-82
2022/03/30 12:17:29;;;;;;;;;;;;;;;21.81;27.74;97785.78;4468508;32;33356;-82
2022/03/30 12:19:56;;;;;;;;;;;;;;;22.65;26.71;97788.13;4468280;32;34126;-82
2022/03/30 12:22:23;;;;;;;;;;;;;;;21.46;28.63;97794.75;4468482;32;33097;-82
2022/03/30 12:24:52;;;;;;;;;;;;;;;21.30;28.75;97778.88;4444976;32;34981;-83
2022/03/30 12:27:19;;;;;;;;;;;;;;;22.02;27.65;97772.34;4465493;32;35103;-82
2022/03/30 12:29:46;;;;;;;;;;;;;;;22.39;26.94;97786.12;4453730;32;34668;-81
2022/03/30 12:32:15;;;;;;;;;;;;;;;21.85;27.25;97775.91;4454339;32;32478;-82
2022/03/30 12:34:43;;;;;;;;;;;;;;;21.63;27.86;97771.00;4454383;32;34199;-83
2022/03/30 12:37:10;;;;;;;;;;;;;;;21.66;27.67;97773.44;4468135;32;34811;-81
2022/03/30 12:39:39;;;;;;;;;;;;;;;21.60;27.14;97772.00;4467822;32;33957;-82
2022/03/30 12:42:12;;;;;;;;;;;;;;;22.17;26.58;97768.87;4468288;32;34139;-82
2022/03/30 12:44:46;;;;;;;;;;;;;;;21.91;27.08;97762.41;4468195;32;34888;-81
2022/03/30 12:47:17;;;;;;;;;;;;;;;21.57;27.36;97753.69;4468138;32;34938;-83
2022/03/30 12:49:45;;;;;;;;;;;;;;;21.14;27.72;97748.06;4453720;32;33842;-85
2022/03/30 12:52:13;;;;;;;;;;;;;;;21.87;26.83;97745.87;4457840;32;33386;-83
2022/03/30 12:54:41;;;;;;;;;;;;;;;21.10;27.84;97753.53;4443363;32;34878;-82
2022/03/30 12:57:09;;;;;;;;;;;;;;;21.01;28.09;97736.44;4453419;32;34012;-81
2022/03/30 12:59:38;;;;;;;;;;;;;;;21.01;28.01;97730.31;4418097;32;868272;-79
2022/03/30 13:02:19;;;;;;;;;;;;;;;21.32;27.96;97740.94;4469176;32;33472;-83
2022/03/30 13:04:54;;;;;;;;;;;;;;;21.14;28.29;97731.41;4472734;32;35065;-79
2022/03/30 13:07:25;;;;;;;;;;;;;;;21.74;27.94;97736.09;4481829;32;34642;-87